Terminal Aerodrome Forecast
Issued by NWS Billings, MT

Home | Current Version | Previous Version | Graphics & Text | Print | Product List | Glossary On
Versions: 1 2 3 4 5 6 7 8 9 10 11 12 13 14 15 16 17 18 19 20 21 22 23 24 25 26
000
FTUS45 KBYZ 132120 AAA
TAFMLS
TAF AMD
KMLS 132120Z 1321/1418 32015KT P6SM BKN090
     FM140200 31010KT P6SM BKN070
     FM140800 31018KT P6SM BKN050=

USA.gov is the U.S. government's official web portal to all federal, state and local government web resources and services.